Time;durP1;ratioP1;P1;durP2;ratioP2;P2;SDS_P1;SDS_P2;PMS_P1;PMS_P2;Temp;Humidity;BMP_temperature;BMP_pressure;BME280_temperature;BME280_humidity;BME280_pressure;Samples;Min_cycle;Max_cycle;Signal;HPM_P1;HPM_P2
2021/08/21 00:00:09;;;;;;;;;;;;;;;16.65;71.22;97135.03;30001;983;1879;-64
2021/08/21 00:00:40;;;;;;;;;;;;;;;16.65;71.02;97137.75;30001;983;1875;-63
2021/08/21 00:01:11;;;;;;;;;;;;;;;16.65;71.36;97136.97;30001;982;1867;-62
2021/08/21 00:01:42;;;;;;;;;;;;;;;16.65;71.51;97132.28;30001;982;1867;-57
2021/08/21 00:02:12;;;;;;;;;;;;;;;16.65;71.91;97137.75;30001;982;1880;-63
2021/08/21 00:02:43;;;;;;;;;;;;;;;16.66;71.63;97133.91;30001;982;1876;-62
2021/08/21 00:03:14;;;;;;;;;;;;;;;16.65;71.99;97137.75;30001;982;1880;-62
2021/08/21 00:03:45;;;;;;;;;;;;;;;16.65;71.59;97132.28;30001;982;1876;-62
2021/08/21 00:04:17;;;;;;;;;;;;;;;16.65;71.97;97137.75;30001;982;1880;-63
2021/08/21 00:04:49;;;;;;;;;;;;;;;16.65;72.20;97126.00;30001;983;1875;-63
2021/08/21 00:05:20;;;;;;;;;;;;;;;16.64;71.79;97136.16;30001;983;1879;-62
2021/08/21 00:05:51;;;;;;;;;;;;;;;16.64;71.67;97136.16;30001;983;1875;-63
2021/08/21 00:06:22;;;;;;;;;;;;;;;16.64;71.45;97136.16;30001;983;1866;-63
2021/08/21 00:06:53;;;;;;;;;;;;;;;16.64;71.79;97135.34;30001;983;1866;-63
2021/08/21 00:07:23;;;;;;;;;;;;;;;16.63;72.31;97131.78;30001;983;1880;-63
2021/08/21 00:07:54;;;;;;;;;;;;;;;16.64;72.01;97125.19;30001;983;1875;-63
2021/08/21 00:08:25;;;;;;;;;;;;;;;16.62;72.32;97130.19;30001;983;1880;-63
2021/08/21 00:08:56;;;;;;;;;;;;;;;16.62;72.03;97130.19;30001;982;1875;-62
2021/08/21 00:09:27;;;;;;;;;;;;;;;16.61;72.11;97130.53;30001;982;1880;-63
2021/08/21 00:10:04;;;;;;;;;;;;;;;16.61;71.86;97134.06;30001;982;1876;-63
2021/08/21 00:10:35;;;;;;;;;;;;;;;16.60;71.80;97124.22;30001;982;1880;-63
2021/08/21 00:11:06;;;;;;;;;;;;;;;16.61;71.78;97131.31;30001;982;1863;-63
2021/08/21 00:11:37;;;;;;;;;;;;;;;16.60;71.77;97129.72;30001;982;1871;-63
2021/08/21 00:12:08;;;;;;;;;;;;;;;16.60;71.98;97135.19;30001;983;1875;-63
2021/08/21 00:12:40;;;;;;;;;;;;;;;16.60;72.03;97137.13;30001;983;1879;-64
2021/08/21 00:13:11;;;;;;;;;;;;;;;16.59;71.73;97130.03;30001;983;1875;-62
2021/08/21 00:13:41;;;;;;;;;;;;;;;16.58;71.80;97137.44;30001;983;1879;-64
2021/08/21 00:14:12;;;;;;;;;;;;;;;16.58;71.79;97126.50;30001;983;1875;-63
2021/08/21 00:14:43;;;;;;;;;;;;;;;16.58;72.39;97131.97;30001;983;1880;-58
2021/08/21 00:15:19;;;;;;;;;;;;;;;16.58;72.01;97131.16;30001;983;1875;-63
2021/08/21 00:15:51;;;;;;;;;;;;;;;16.57;72.09;97135.03;30001;983;1880;-63
2021/08/21 00:16:22;;;;;;;;;;;;;;;16.57;72.22;97132.28;30001;982;1862;-63
2021/08/21 00:16:53;;;;;;;;;;;;;;;16.56;72.26;97128.75;30001;982;1858;-63
2021/08/21 00:17:24;;;;;;;;;;;;;;;16.55;72.56;97129.88;30001;982;1876;-62
2021/08/21 00:17:55;;;;;;;;;;;;;;;16.55;72.51;97132.63;30001;982;1880;-63
2021/08/21 00:18:25;;;;;;;;;;;;;;;16.55;72.71;97129.88;30001;982;1876;-63
2021/08/21 00:18:57;;;;;;;;;;;;;;;16.53;72.79;97129.41;30001;982;1880;-62
2021/08/21 00:19:28;;;;;;;;;;;;;;;16.53;72.40;97126.66;30001;983;1875;-64
2021/08/21 00:19:59;;;;;;;;;;;;;;;16.53;72.57;97132.12;30001;983;1879;-62
2021/08/21 00:20:30;;;;;;;;;;;;;;;16.53;72.65;97134.06;30001;983;1875;-62
2021/08/21 00:21:01;;;;;;;;;;;;;;;16.52;72.74;97127.78;30001;983;1879;-62
2021/08/21 00:21:32;;;;;;;;;;;;;;;16.52;72.37;97133.28;30001;983;1875;-62
2021/08/21 00:22:03;;;;;;;;;;;;;;;16.51;72.54;97128.13;30001;983;1866;-62
2021/08/21 00:22:34;;;;;;;;;;;;;;;16.50;72.61;97130.06;30001;983;1866;-62
2021/08/21 00:23:05;;;;;;;;;;;;;;;16.49;72.51;97122.97;30001;983;1880;-61
2021/08/21 00:23:35;;;;;;;;;;;;;;;16.49;72.61;97130.38;30001;983;1875;-62
2021/08/21 00:24:06;;;;;;;;;;;;;;;16.49;72.79;97133.09;30001;982;1880;-61
2021/08/21 00:24:37;;;;;;;;;;;;;;;16.48;72.90;97134.25;30001;982;1876;-63
2021/08/21 00:25:09;;;;;;;;;;;;;;;16.47;72.93;97129.88;30001;982;1880;-63
2021/08/21 00:25:40;;;;;;;;;;;;;;;16.47;73.12;97127.97;30001;982;1876;-62
2021/08/21 00:26:11;;;;;;;;;;;;;;;16.45;73.08;97132.94;30001;982;1880;-63
2021/08/21 00:26:42;;;;;;;;;;;;;;;16.45;73.25;97132.94;30001;964;1798;-63
2021/08/21 00:27:12;;;;;;;;;;;;;;;16.44;72.82;97128.59;30001;983;1866;-62
2021/08/21 00:27:45;;;;;;;;;;;;;;;16.43;72.87;97130.53;30001;983;1866;-62
2021/08/21 00:28:16;;;;;;;;;;;;;;;16.42;72.75;97128.94;30001;983;1879;-62
2021/08/21 00:28:46;;;;;;;;;;;;;;;16.45;72.84;97132.16;30001;983;1875;-62
2021/08/21 00:29:17;;;;;;;;;;;;;;;16.43;72.96;97127.81;30001;983;1879;-63
2021/08/21 00:29:48;;;;;;;;;;;;;;;16.43;72.94;97129.72;30001;983;1875;-62
2021/08/21 00:30:19;;;;;;;;;;;;;;;16.42;72.67;97128.94;30001;983;1880;-64
2021/08/21 00:30:51;;;;;;;;;;;;;;;16.43;72.60;97124.25;30001;983;1875;-62
2021/08/21 00:31:21;;;;;;;;;;;;;;;16.43;72.48;97127.00;30001;982;1880;-63
2021/08/21 00:31:52;;;;;;;;;;;;;;;16.42;72.70;97126.19;30001;982;1875;-63
2021/08/21 00:32:23;;;;;;;;;;;;;;;16.42;72.72;97117.97;30001;982;1867;-62
2021/08/21 00:32:54;;;;;;;;;;;;;;;16.43;72.23;97127.81;30001;982;1867;-63
2021/08/21 00:33:25;;;;;;;;;;;;;;;16.43;72.45;97129.72;30001;982;1867;-63
2021/08/21 00:33:56;;;;;;;;;;;;;;;16.43;72.15;97133.28;30001;983;1866;-56
2021/08/21 00:34:27;;;;;;;;;;;;;;;16.43;72.11;97125.06;30001;983;1879;-64
2021/08/21 00:34:57;;;;;;;;;;;;;;;16.45;71.73;97130.22;30001;983;1875;-62
2021/08/21 00:35:28;;;;;;;;;;;;;;;16.45;71.64;97130.22;30001;983;1879;-62
2021/08/21 00:35:59;;;;;;;;;;;;;;;16.45;72.12;97132.94;30001;973;1893;-62
2021/08/21 00:36:30;;;;;;;;;;;;;;;16.45;72.26;97124.72;30001;983;1879;-62
2021/08/21 00:37:01;;;;;;;;;;;;;;;16.44;72.46;97128.59;30001;983;1875;-62
2021/08/21 00:37:32;;;;;;;;;;;;;;;16.44;72.34;97125.88;30001;983;1879;-61
2021/08/21 00:38:03;;;;;;;;;;;;;;;16.45;72.74;97126.66;30001;963;1803;-62
2021/08/21 00:38:34;;;;;;;;;;;;;;;16.45;72.54;97129.41;30001;983;1867;-63
2021/08/21 00:39:05;;;;;;;;;;;;;;;16.43;72.78;97129.72;30001;972;1885;-62
2021/08/21 00:39:36;;;;;;;;;;;;;;;16.41;72.90;97129.25;30001;982;1880;-62
2021/08/21 00:40:08;;;;;;;;;;;;;;;16.39;72.86;97126.84;30001;982;1876;-62
2021/08/21 00:40:39;;;;;;;;;;;;;;;16.40;72.83;97124.91;30001;982;1880;-63
2021/08/21 00:41:10;;;;;;;;;;;;;;;16.38;73.45;97122.47;30001;982;1876;-63
2021/08/21 00:41:41;;;;;;;;;;;;;;;16.36;73.10;97130.22;30001;983;1879;-62
2021/08/21 00:42:12;;;;;;;;;;;;;;;16.36;73.15;97123.94;30001;983;1875;-62
2021/08/21 00:42:43;;;;;;;;;;;;;;;16.37;73.07;97120.06;30001;983;1879;-63
2021/08/21 00:43:19;;;;;;;;;;;;;;;16.37;73.34;97120.06;30001;983;1862;-62
2021/08/21 00:43:50;;;;;;;;;;;;;;;16.35;73.71;97119.59;30001;983;1871;-62
2021/08/21 00:44:21;;;;;;;;;;;;;;;16.34;73.92;97120.72;30001;983;1875;-64
2021/08/21 00:44:52;;;;;;;;;;;;;;;16.33;73.38;97124.59;30001;983;1880;-64
2021/08/21 00:45:23;;;;;;;;;;;;;;;16.33;73.34;97124.59;30001;983;1779;-63
2021/08/21 00:45:54;;;;;;;;;;;;;;;16.32;73.83;97123.78;30001;983;1880;-63
2021/08/21 00:46:25;;;;;;;;;;;;;;;16.33;73.84;97124.59;30001;982;1862;-63
2021/08/21 00:47:18;;;;;;;;;;;;;;;16.32;73.75;97122.97;30001;982;1871;-63
2021/08/21 00:47:49;;;;;;;;;;;;;;;16.33;73.31;97124.59;30001;982;1871;-62
2021/08/21 00:48:20;;;;;;;;;;;;;;;16.32;73.12;97118.31;30001;982;1867;-63
2021/08/21 00:48:52;;;;;;;;;;;;;;;16.33;73.34;97119.09;30001;983;1866;-64
2021/08/21 00:49:23;;;;;;;;;;;;;;;16.33;73.20;97121.84;30001;983;1879;-64
2021/08/21 00:49:54;;;;;;;;;;;;;;;16.33;72.75;97119.91;30001;983;1875;-63
2021/08/21 00:50:25;;;;;;;;;;;;;;;16.34;72.94;97126.19;30001;983;1879;-63
2021/08/21 00:51:01;;;;;;;;;;;;;;;16.34;72.48;97120.72;30001;983;1875;-62
2021/08/21 00:51:31;;;;;;;;;;;;;;;16.33;72.74;97116.38;30001;983;1866;-62
2021/08/21 00:52:04;;;;;;;;;;;;;;;16.33;72.32;97119.09;30001;983;1866;-62
2021/08/21 00:52:35;;;;;;;;;;;;;;;16.34;72.51;97123.44;30001;983;1880;-64
2021/08/21 00:53:06;;;;;;;;;;;;;;;16.33;72.16;97113.63;30001;983;1875;-62
2021/08/21 00:53:37;;;;;;;;;;;;;;;16.34;72.26;97116.03;30001;983;1867;-63
2021/08/21 00:54:07;;;;;;;;;;;;;;;16.35;71.89;97116.84;30001;982;1867;-62
2021/08/21 00:54:39;;;;;;;;;;;;;;;16.36;71.78;97110.25;30001;982;1880;-62
2021/08/21 00:55:10;;;;;;;;;;;;;;;16.35;71.76;97119.59;30001;982;1876;-64
2021/08/21 00:55:41;;;;;;;;;;;;;;;16.36;71.81;97123.94;30001;982;1880;-63
2021/08/21 00:56:12;;;;;;;;;;;;;;;16.35;71.68;97116.84;30001;960;1798;-63
2021/08/21 00:56:43;;;;;;;;;;;;;;;16.36;71.65;97118.47;30001;983;1879;-63
2021/08/21 00:57:15;;;;;;;;;;;;;;;16.36;71.59;97115.72;30001;983;1875;-63
2021/08/21 00:57:46;;;;;;;;;;;;;;;16.35;71.60;97111.38;30001;983;1879;-62
2021/08/21 00:58:20;;;;;;;;;;;;;;;16.34;71.82;97110.56;30001;983;1875;-63
2021/08/21 00:58:51;;;;;;;;;;;;;;;16.34;71.85;97117.97;30001;983;1866;-63
2021/08/21 00:59:23;;;;;;;;;;;;;;;16.33;71.71;97121.84;30001;983;1866;-63
2021/08/21 00:59:53;;;;;;;;;;;;;;;16.33;71.64;97108.97;30001;983;1880;-62
2021/08/21 01:00:25;;;;;;;;;;;;;;;16.33;71.60;97113.63;30001;983;1875;-62
2021/08/21 01:00:56;;;;;;;;;;;;;;;16.33;71.90;97108.16;30001;983;1867;-64
2021/08/21 01:01:28;;;;;;;;;;;;;;;16.34;71.59;97115.25;30001;982;1867;-63
2021/08/21 01:02:00;;;;;;;;;;;;;;;16.32;71.71;97109.28;30001;982;1880;-64
2021/08/21 01:02:32;;;;;;;;;;;;;;;16.31;71.57;97111.22;30001;982;1862;-65
2021/08/21 01:03:03;;;;;;;;;;;;;;;16.31;71.79;97107.66;30001;982;1871;-63
2021/08/21 01:03:34;;;;;;;;;;;;;;;16.31;71.90;97113.16;30001;984;1866;-62
2021/08/21 01:04:04;;;;;;;;;;;;;;;16.30;71.89;97109.59;30001;983;1879;-63
2021/08/21 01:04:36;;;;;;;;;;;;;;;16.30;71.58;97114.28;30001;983;1875;-64
2021/08/21 01:05:08;;;;;;;;;;;;;;;16.31;71.73;97108.47;30001;983;1879;-62
2021/08/21 01:05:39;;;;;;;;;;;;;;;16.32;71.72;97106.53;30001;983;1875;-64
2021/08/21 01:06:10;;;;;;;;;;;;;;;16.32;71.46;97104.59;30001;983;1879;-62
2021/08/21 01:06:41;;;;;;;;;;;;;;;16.34;71.10;97104.28;30001;983;1862;-63
2021/08/21 01:07:12;;;;;;;;;;;;;;;16.33;71.36;97111.69;30001;983;1858;-63
2021/08/21 01:07:44;;;;;;;;;;;;;;;16.33;71.03;97113.63;30001;983;1875;-62
2021/08/21 01:08:16;;;;;;;;;;;;;;;16.33;71.24;97108.16;30001;982;1880;-57
2021/08/21 01:08:46;;;;;;;;;;;;;;;16.34;71.07;97109.75;30001;982;1875;-63
2021/08/21 01:09:17;;;;;;;;;;;;;;;16.32;71.16;97110.09;30001;961;1901;-64
2021/08/21 01:09:48;;;;;;;;;;;;;;;16.33;71.03;97110.88;30001;982;1876;-63
2021/08/21 01:10:20;;;;;;;;;;;;;;;16.33;71.22;97113.63;30001;982;1880;-62
2021/08/21 01:10:51;;;;;;;;;;;;;;;16.32;71.02;97112.81;30001;982;1876;-62
2021/08/21 01:11:23;;;;;;;;;;;;;;;16.32;71.22;97106.53;30001;982;1880;-64
2021/08/21 01:11:54;;;;;;;;;;;;;;;16.33;71.12;97114.44;30001;983;1862;-61
2021/08/21 01:12:24;;;;;;;;;;;;;;;16.32;71.05;97107.34;30001;983;1871;-63
2021/08/21 01:12:56;;;;;;;;;;;;;;;16.32;70.87;97106.53;30001;983;1875;-63
2021/08/21 01:13:26;;;;;;;;;;;;;;;16.32;71.16;97106.53;30001;983;1879;-63
2021/08/21 01:13:57;;;;;;;;;;;;;;;16.35;70.80;97108.62;30001;983;1875;-63
2021/08/21 01:14:28;;;;;;;;;;;;;;;16.35;71.02;97105.91;30001;983;1880;-62
2021/08/21 01:15:00;;;;;;;;;;;;;;;16.35;70.97;97103.16;30001;983;1875;-62
2021/08/21 01:15:30;;;;;;;;;;;;;;;16.35;70.80;97111.38;30001;983;1867;-63
2021/08/21 01:16:01;;;;;;;;;;;;;;;16.35;71.04;97105.91;30001;982;1867;-62
2021/08/21 01:16:33;;;;;;;;;;;;;;;16.35;70.98;97103.97;30001;982;1880;-63
2021/08/21 01:17:04;;;;;;;;;;;;;;;16.36;70.78;97104.75;30001;982;1876;-63
2021/08/21 01:17:35;;;;;;;;;;;;;;;16.35;70.97;97106.69;30001;982;1880;-62
2021/08/21 01:18:06;;;;;;;;;;;;;;;16.35;70.82;97097.69;30001;982;1862;-64
2021/08/21 01:18:38;;;;;;;;;;;;;;;16.34;70.85;97107.03;30001;982;1871;-63
2021/08/21 01:19:09;;;;;;;;;;;;;;;16.34;70.51;97105.09;30001;983;1875;-63
2021/08/21 01:19:42;;;;;;;;;;;;;;;16.34;70.85;97110.56;30001;983;1879;-62
2021/08/21 01:20:13;;;;;;;;;;;;;;;16.34;70.54;97107.03;30001;983;1875;-62
2021/08/21 01:20:45;;;;;;;;;;;;;;;16.33;70.82;97108.16;30001;983;1879;-64
2021/08/21 01:21:17;;;;;;;;;;;;;;;16.33;70.69;97108.97;30001;983;1875;-64
2021/08/21 01:21:48;;;;;;;;;;;;;;;16.34;70.67;97109.75;30001;983;1880;-63
2021/08/21 01:22:21;;;;;;;;;;;;;;;16.34;70.77;97107.03;30001;983;1875;-63
2021/08/21 01:22:52;;;;;;;;;;;;;;;16.33;70.87;97108.16;30001;983;1867;-64
2021/08/21 01:23:24;;;;;;;;;;;;;;;16.33;70.70;97102.69;30001;982;1867;-62
2021/08/21 01:23:54;;;;;;;;;;;;;;;16.34;70.77;97101.56;30001;982;1880;-62
2021/08/21 01:24:27;;;;;;;;;;;;;;;16.34;70.68;97110.56;30001;982;1876;-62
2021/08/21 01:24:58;;;;;;;;;;;;;;;16.33;70.61;97103.47;30001;982;1880;-57
2021/08/21 01:25:30;;;;;;;;;;;;;;;16.33;70.81;97103.47;30001;982;1876;-63
2021/08/21 01:26:00;;;;;;;;;;;;;;;16.34;71.06;97107.03;30001;982;1867;-65
2021/08/21 01:26:32;;;;;;;;;;;;;;;16.33;70.97;97108.16;30001;982;1867;-63
2021/08/21 01:27:03;;;;;;;;;;;;;;;16.33;70.93;97102.69;30001;983;1866;-63
2021/08/21 01:27:34;;;;;;;;;;;;;;;16.33;70.78;97105.41;30001;983;1866;-63
2021/08/21 01:28:05;;;;;;;;;;;;;;;16.33;70.72;97102.69;30001;972;1899;-65
2021/08/21 01:28:36;;;;;;;;;;;;;;;16.33;70.60;97102.69;30001;983;1875;-63
2021/08/21 01:29:07;;;;;;;;;;;;;;;16.32;70.72;97106.53;30001;983;1880;-63
2021/08/21 01:29:40;;;;;;;;;;;;;;;16.32;70.61;97101.06;30001;983;1875;-63
2021/08/21 01:30:11;;;;;;;;;;;;;;;16.30;70.86;97104.13;30001;983;1880;-64
2021/08/21 01:30:42;;;;;;;;;;;;;;;16.30;70.92;97109.59;30001;983;1862;-64
2021/08/21 01:31:13;;;;;;;;;;;;;;;16.28;71.04;97103.69;30001;982;1871;-63
2021/08/21 01:31:45;;;;;;;;;;;;;;;16.29;70.67;97101.72;30001;982;1876;-63
2021/08/21 01:32:16;;;;;;;;;;;;;;;16.28;70.72;97111.09;30001;982;1880;-57
2021/08/21 01:32:47;;;;;;;;;;;;;;;16.28;70.79;97105.59;30001;982;1876;-62
2021/08/21 01:33:18;;;;;;;;;;;;;;;16.27;70.83;97104.00;30001;982;1802;-63
2021/08/21 01:33:49;;;;;;;;;;;;;;;16.27;70.72;97110.28;30001;982;1876;-64
2021/08/21 01:34:20;;;;;;;;;;;;;;;16.27;71.04;97104.00;30001;983;1879;-63
2021/08/21 01:34:53;;;;;;;;;;;;;;;16.27;70.99;97104.00;30001;983;1875;-58
2021/08/21 01:35:24;;;;;;;;;;;;;;;16.27;71.04;97098.53;30001;983;1866;-62
2021/08/21 01:35:58;;;;;;;;;;;;;;;16.26;71.03;97105.13;30001;983;1866;-58
2021/08/21 01:36:37;;;;;;;;;;;;;;;16.25;70.74;97101.59;30001;983;1879;-58
2021/08/21 01:37:09;;;;;;;;;;;;;;;16.24;70.78;97105.44;30001;983;1875;-59
2021/08/21 01:37:39;;;;;;;;;;;;;;;16.24;71.08;97110.13;30001;983;1880;-58
2021/08/21 01:38:10;;;;;;;;;;;;;;;16.23;71.27;97106.56;30001;983;1875;-58
2021/08/21 01:39:01;;;;;;;;;;;;;;;16.22;70.97;97096.75;30001;982;1880;-58
2021/08/21 01:39:33;;;;;;;;;;;;;;;16.21;70.96;97105.28;30001;982;1858;-63
2021/08/21 01:40:04;;;;;;;;;;;;;;;16.21;71.41;97106.09;30001;982;1871;-58
2021/08/21 01:40:36;;;;;;;;;;;;;;;16.19;71.43;97102.06;30001;982;1876;-58
2021/08/21 01:41:10;;;;;;;;;;;;;;;16.18;71.25;97105.94;30001;983;1879;-59
2021/08/21 01:41:42;;;;;;;;;;;;;;;16.17;71.15;97093.38;30001;983;1875;-58
2021/08/21 01:42:13;;;;;;;;;;;;;;;16.16;71.33;97102.72;30001;983;1879;-59
2021/08/21 01:42:44;;;;;;;;;;;;;;;16.15;71.29;97101.09;30001;983;1875;-63
2021/08/21 01:43:15;;;;;;;;;;;;;;;16.16;71.42;97108.19;30001;983;1866;-58
2021/08/21 01:43:46;;;;;;;;;;;;;;;16.15;71.38;97101.09;30001;983;1866;-62
2021/08/21 01:44:17;;;;;;;;;;;;;;;16.14;71.51;97102.22;30001;983;1880;-58
2021/08/21 01:44:48;;;;;;;;;;;;;;;16.12;71.25;97102.56;30001;983;1862;-56
2021/08/21 01:45:19;;;;;;;;;;;;;;;16.09;71.49;97104.00;30001;983;1871;-58
2021/08/21 01:45:50;;;;;;;;;;;;;;;16.08;71.62;97102.38;30001;983;1875;-63
2021/08/21 01:46:21;;;;;;;;;;;;;;;16.08;71.46;97099.66;30001;975;1895;-63
2021/08/21 01:46:52;;;;;;;;;;;;;;;16.07;71.44;97106.25;30001;982;1864;-58
2021/08/21 01:47:23;;;;;;;;;;;;;;;16.07;71.44;97106.25;30001;982;1880;-58
2021/08/21 01:47:54;;;;;;;;;;;;;;;16.06;71.46;97101.91;30001;982;1876;-62
2021/08/21 01:48:25;;;;;;;;;;;;;;;16.06;71.70;97104.66;30001;983;1866;-58
2021/08/21 01:48:55;;;;;;;;;;;;;;;16.06;71.73;97107.38;30001;983;1866;-65
2021/08/21 01:49:27;;;;;;;;;;;;;;;16.06;71.70;97101.09;30001;983;1866;-63
2021/08/21 01:50:03;;;;;;;;;;;;;;;16.06;71.55;97115.59;30001;983;1866;-64
2021/08/21 01:50:33;;;;;;;;;;;;;;;16.04;71.70;97106.09;30001;983;1879;-58
2021/08/21 01:51:04;;;;;;;;;;;;;;;16.02;71.47;97103.69;30001;983;1875;-57
2021/08/21 01:51:39;;;;;;;;;;;;;;;16.01;71.73;97102.06;30001;983;1879;-63
2021/08/21 01:52:10;;;;;;;;;;;;;;;16.00;71.50;97100.47;30001;983;1875;-64
2021/08/21 01:52:41;;;;;;;;;;;;;;;15.99;71.83;97109.78;30001;983;1867;-58
2021/08/21 01:53:15;;;;;;;;;;;;;;;15.99;71.87;97107.06;30001;983;1866;-57
2021/08/21 01:53:46;;;;;;;;;;;;;;;15.98;71.99;97102.72;30001;982;1880;-63
2021/08/21 01:54:21;;;;;;;;;;;;;;;15.98;71.74;97102.72;30001;982;1876;-63
2021/08/21 01:54:51;;;;;;;;;;;;;;;15.98;71.87;97107.38;30001;982;1880;-58
2021/08/21 01:55:23;;;;;;;;;;;;;;;16.00;71.97;97105.94;30001;982;1863;-63
2021/08/21 01:55:57;;;;;;;;;;;;;;;16.00;72.34;97108.66;30001;982;1871;-64
2021/08/21 01:56:28;;;;;;;;;;;;;;;15.99;72.11;97104.31;30001;983;1875;-62
2021/08/21 01:57:00;;;;;;;;;;;;;;;15.98;72.32;97099.97;30001;983;1879;-64
2021/08/21 01:57:31;;;;;;;;;;;;;;;15.95;72.30;97103.34;30001;983;1862;-63
2021/08/21 01:58:02;;;;;;;;;;;;;;;15.94;72.21;97106.44;30001;983;1871;-63
2021/08/21 01:58:33;;;;;;;;;;;;;;;15.92;72.33;97106.75;30001;983;1875;-63
2021/08/21 01:59:04;;;;;;;;;;;;;;;15.91;72.50;97102.41;30001;983;1879;-64
2021/08/21 01:59:36;;;;;;;;;;;;;;;15.90;72.67;97100.00;30001;985;1867;-58
2021/08/21 02:00:07;;;;;;;;;;;;;;;15.89;72.91;97103.84;30001;983;1866;-63
2021/08/21 02:00:39;;;;;;;;;;;;;;;15.86;72.88;97099.84;30001;983;1867;-62
2021/08/21 02:01:13;;;;;;;;;;;;;;;15.85;73.01;97106.44;30001;982;1880;-58
2021/08/21 02:01:44;;;;;;;;;;;;;;;15.85;72.75;97098.22;30001;982;1875;-58
2021/08/21 02:02:17;;;;;;;;;;;;;;;15.83;73.18;97099.66;30001;982;1880;-64
2021/08/21 02:02:48;;;;;;;;;;;;;;;15.81;73.16;97099.19;30001;982;1876;-57
2021/08/21 02:03:19;;;;;;;;;;;;;;;15.79;73.10;97104.97;30001;982;1880;-63
2021/08/21 02:03:50;;;;;;;;;;;;;;;15.78;73.66;97106.09;30001;983;1862;-59
2021/08/21 02:04:21;;;;;;;;;;;;;;;15.76;73.46;97097.41;30001;961;1892;-57
2021/08/21 02:04:52;;;;;;;;;;;;;;;15.75;73.64;97113.00;30001;983;1862;-57
2021/08/21 02:05:23;;;;;;;;;;;;;;;15.75;73.55;97098.53;30001;983;1871;-66
2021/08/21 02:05:54;;;;;;;;;;;;;;;15.73;73.85;97100.78;30001;983;1875;-56
2021/08/21 02:06:25;;;;;;;;;;;;;;;15.72;73.59;97104.63;30001;983;1879;-65
2021/08/21 02:06:56;;;;;;;;;;;;;;;15.71;73.75;97103.03;30001;983;1875;-63
2021/08/21 02:07:26;;;;;;;;;;;;;;;15.70;73.74;97095.94;30001;983;1880;-58
2021/08/21 02:07:57;;;;;;;;;;;;;;;15.68;74.00;97103.66;30001;983;1862;-58
2021/08/21 02:08:28;;;;;;;;;;;;;;;15.68;73.77;97101.72;30001;983;1871;-58
2021/08/21 02:08:59;;;;;;;;;;;;;;;15.67;73.82;97096.59;30001;982;1875;-58
2021/08/21 02:09:30;;;;;;;;;;;;;;;15.66;73.77;97100.44;30001;982;1880;-58
2021/08/21 02:10:02;;;;;;;;;;;;;;;15.65;73.98;97099.63;30001;982;1876;-59
2021/08/21 02:10:33;;;;;;;;;;;;;;;15.64;73.93;97098.03;30001;982;1880;-58
2021/08/21 02:11:04;;;;;;;;;;;;;;;15.64;73.92;97099.97;30001;964;1894;-64
2021/08/21 02:11:34;;;;;;;;;;;;;;;15.63;73.94;97101.09;30001;983;1879;-63
2021/08/21 02:12:06;;;;;;;;;;;;;;;15.62;74.24;97096.72;30001;983;1875;-64
2021/08/21 02:12:37;;;;;;;;;;;;;;;15.60;74.23;97097.06;30001;983;1866;-57
2021/08/21 02:13:08;;;;;;;;;;;;;;;15.59;74.39;97095.47;30001;983;1866;-58
2021/08/21 02:13:39;;;;;;;;;;;;;;;15.58;74.11;97090.31;30001;970;1900;-57
2021/08/21 02:14:13;;;;;;;;;;;;;;;15.57;74.65;97096.91;30001;983;1862;-58
2021/08/21 02:14:44;;;;;;;;;;;;;;;15.55;74.85;97093.66;30001;983;1871;-63
2021/08/21 02:15:16;;;;;;;;;;;;;;;15.54;75.12;97100.25;30001;982;1875;-64
2021/08/21 02:15:47;;;;;;;;;;;;;;;15.52;75.09;97094.31;30001;982;1880;-59
2021/08/21 02:16:19;;;;;;;;;;;;;;;15.51;74.97;97092.69;30001;982;1876;-58
2021/08/21 02:16:53;;;;;;;;;;;;;;;15.49;74.67;97094.94;30001;982;1880;-58
2021/08/21 02:17:24;;;;;;;;;;;;;;;15.50;74.68;97088.34;30001;982;1862;-63
2021/08/21 02:17:54;;;;;;;;;;;;;;;15.49;74.89;97094.94;30001;982;1871;-63
2021/08/21 02:18:25;;;;;;;;;;;;;;;15.48;74.69;97105.06;30001;982;1876;-63
2021/08/21 02:18:56;;;;;;;;;;;;;;;15.47;74.88;97088.97;30001;986;1879;-63
2021/08/21 02:19:27;;;;;;;;;;;;;;;15.45;74.64;97097.50;30001;983;1875;-63
2021/08/21 02:19:58;;;;;;;;;;;;;;;15.46;74.52;97098.31;30001;983;1879;-64
2021/08/21 02:20:30;;;;;;;;;;;;;;;15.45;74.73;97097.50;30001;983;1875;-63
2021/08/21 02:21:02;;;;;;;;;;;;;;;15.46;74.77;97092.84;30001;983;1866;-63
2021/08/21 02:21:33;;;;;;;;;;;;;;;15.45;74.90;97093.97;30001;983;1866;-58
2021/08/21 02:22:04;;;;;;;;;;;;;;;15.45;74.89;97093.97;30001;983;1880;-59
2021/08/21 02:22:35;;;;;;;;;;;;;;;15.45;74.71;97099.44;30001;983;1862;-57
2021/08/21 02:23:06;;;;;;;;;;;;;;;15.43;75.12;97094.28;30001;982;1871;-57
2021/08/21 02:23:36;;;;;;;;;;;;;;;15.42;75.07;97096.22;30001;982;1876;-62
2021/08/21 02:24:07;;;;;;;;;;;;;;;15.41;75.51;97094.59;30001;982;1880;-64
2021/08/21 02:24:41;;;;;;;;;;;;;;;15.43;75.40;97099.75;30001;982;1876;-63
2021/08/21 02:25:14;;;;;;;;;;;;;;;15.42;75.29;97095.41;30001;982;1880;-64
2021/08/21 02:25:45;;;;;;;;;;;;;;;15.43;75.27;97097.81;30001;983;1862;-64
2021/08/21 02:26:16;;;;;;;;;;;;;;;15.42;75.30;97089.94;30001;983;1857;-62
2021/08/21 02:26:47;;;;;;;;;;;;;;;15.42;75.26;97092.66;30001;983;1875;-64
2021/08/21 02:27:22;;;;;;;;;;;;;;;15.43;75.12;97091.53;30001;983;1879;-57
2021/08/21 02:27:58;;;;;;;;;;;;;;;15.43;75.09;97091.53;30001;983;1875;-63
2021/08/21 02:28:29;;;;;;;;;;;;;;;15.42;75.09;97093.47;30001;983;1879;-62
2021/08/21 02:29:00;;;;;;;;;;;;;;;15.41;75.25;97089.13;30001;983;1875;-62
2021/08/21 02:29:31;;;;;;;;;;;;;;;15.41;75.00;97097.31;30001;987;1871;-64
2021/08/21 02:30:05;;;;;;;;;;;;;;;15.41;75.43;97093.78;30001;983;1880;-64
2021/08/21 02:30:37;;;;;;;;;;;;;;;15.40;75.35;97092.19;30001;969;1875;-64
2021/08/21 02:31:07;;;;;;;;;;;;;;;15.39;75.48;97091.38;30001;982;1875;-63
2021/08/21 02:31:39;;;;;;;;;;;;;;;15.38;75.19;97088.97;30001;982;1880;-64
2021/08/21 02:32:10;;;;;;;;;;;;;;;15.37;75.25;97081.87;30001;982;1871;-63
2021/08/21 02:32:40;;;;;;;;;;;;;;;15.36;75.60;97089.28;30001;982;1780;-64
2021/08/21 02:33:11;;;;;;;;;;;;;;;15.35;75.47;97084.94;30001;983;1883;-63
2021/08/21 02:33:42;;;;;;;;;;;;;;;15.34;75.66;97083.31;30001;983;1879;-63
2021/08/21 02:34:13;;;;;;;;;;;;;;;15.32;76.18;97085.56;30001;983;1884;-62
2021/08/21 02:34:44;;;;;;;;;;;;;;;15.31;76.84;97083.94;30001;983;1879;-63
2021/08/21 02:35:15;;;;;;;;;;;;;;;15.29;77.44;97086.19;30001;983;1884;-63
2021/08/21 02:35:46;;;;;;;;;;;;;;;15.26;77.14;97092.28;30001;983;1879;-63
2021/08/21 02:36:17;;;;;;;;;;;;;;;15.24;77.44;97089.09;30001;983;1884;-64
2021/08/21 02:36:48;;;;;;;;;;;;;;;15.23;77.56;97087.50;30001;983;1880;-63
2021/08/21 02:37:19;;;;;;;;;;;;;;;15.21;78.33;97084.28;30001;983;1871;-59
2021/08/21 02:37:50;;;;;;;;;;;;;;;15.18;78.33;97084.09;30001;983;1871;-63
2021/08/21 02:38:22;;;;;;;;;;;;;;;15.16;78.41;97087.16;30001;982;1884;-58
2021/08/21 02:38:53;;;;;;;;;;;;;;;15.13;78.11;97089.72;30001;982;1880;-62
2021/08/21 02:39:24;;;;;;;;;;;;;;;15.12;78.04;97085.38;30001;982;1884;-64
2021/08/21 02:39:55;;;;;;;;;;;;;;;15.09;78.18;97089.53;30001;982;1867;-57
2021/08/21 02:40:26;;;;;;;;;;;;;;;15.08;78.11;97079.72;30001;983;1875;-63
2021/08/21 02:40:57;;;;;;;;;;;;;;;15.06;77.95;97088.25;30001;983;1879;-63
2021/08/21 02:41:28;;;;;;;;;;;;;;;15.05;77.98;97091.28;30001;983;1884;-64
2021/08/21 02:41:59;;;;;;;;;;;;;;;15.04;77.76;97090.47;30001;983;1879;-63
2021/08/21 02:42:30;;;;;;;;;;;;;;;15.05;77.41;97085.81;30001;983;1871;-57
2021/08/21 02:43:01;;;;;;;;;;;;;;;15.05;77.56;97083.88;30001;983;1871;-58
2021/08/21 02:43:31;;;;;;;;;;;;;;;15.05;77.54;97085.81;30001;983;1884;-64
2021/08/21 02:44:03;;;;;;;;;;;;;;;15.04;77.68;97089.66;30001;983;1880;-63
2021/08/21 02:44:34;;;;;;;;;;;;;;;15.01;78.23;97079.38;30001;983;1884;-62
2021/08/21 02:45:06;;;;;;;;;;;;;;;15.00;78.21;97088.69;30001;983;1867;-63
2021/08/21 02:45:36;;;;;;;;;;;;;;;14.98;77.88;97085.47;30001;982;1875;-63
2021/08/21 02:46:07;;;;;;;;;;;;;;;14.97;77.71;97084.66;30001;961;1901;-62
2021/08/21 02:46:38;;;;;;;;;;;;;;;14.97;77.85;97083.84;30001;982;1884;-63
2021/08/21 02:47:09;;;;;;;;;;;;;;;14.97;77.50;97079.19;30001;982;1880;-64
2021/08/21 02:47:40;;;;;;;;;;;;;;;14.98;77.80;97080.00;30001;982;1884;-64
2021/08/21 02:48:10;;;;;;;;;;;;;;;14.98;77.47;97080.81;30001;983;1866;-63